Avoca, Pennsylvania
Current Conditions -  °F | °C
As of 2:54 PM on Friday 19 Dec 2014 (Local Time) from KAVP Reporting Station
Overcast Overcast  
Wind Chill: 19°   Ceiling: 2300
Heat Index: 30°   Visibility: 10mi
Dew Point: 19°   Wind: 15mph
Humidity: 64%   Direction: 310°NW
Pressure: 30.1"   Gusts: 23mph
Location:  41.3331°N, 75.7365°W
Report Text: KAVP 191954Z AUTO 31013G20KT 10SM OVC023 M01/M07 A3010 RMK AO2 SLP200 T10111072
Loading
Personal Weather Stations






























Interactive Weather Map New forecast layout! Learn more

10-Day Weather Forecast

Advertisements
Track Severe Weather on mobile